sensor_id;sensor_type;location;lat;lon;timestamp;P1;durP1;ratioP1;P2;durP2;ratioP2
793;SDS011;380;48.738;9.214;2022-08-25T00:00:36;3.03;;;2.30;;
793;SDS011;380;48.738;9.214;2022-08-25T00:03:02;2.85;;;2.13;;
793;SDS011;380;48.738;9.214;2022-08-25T00:05:28;2.45;;;1.70;;
793;SDS011;380;48.738;9.214;2022-08-25T00:07:55;3.38;;;2.40;;
793;SDS011;380;48.738;9.214;2022-08-25T00:10:21;2.47;;;1.80;;
793;SDS011;380;48.738;9.214;2022-08-25T00:12:47;3.17;;;2.03;;
793;SDS011;380;48.738;9.214;2022-08-25T00:15:13;3.30;;;2.47;;
793;SDS011;380;48.738;9.214;2022-08-25T00:17:39;3.83;;;2.20;;
793;SDS011;380;48.738;9.214;2022-08-25T00:20:05;3.50;;;2.20;;
793;SDS011;380;48.738;9.214;2022-08-25T00:22:33;3.40;;;2.40;;
793;SDS011;380;48.738;9.214;2022-08-25T00:24:59;4.78;;;2.00;;
793;SDS011;380;48.738;9.214;2022-08-25T00:27:25;3.50;;;2.00;;
793;SDS011;380;48.738;9.214;2022-08-25T00:29:51;2.88;;;1.98;;
793;SDS011;380;48.738;9.214;2022-08-25T00:32:17;3.00;;;1.95;;
793;SDS011;380;48.738;9.214;2022-08-25T00:34:43;3.28;;;2.08;;
793;SDS011;380;48.738;9.214;2022-08-25T00:37:09;3.40;;;2.42;;
793;SDS011;380;48.738;9.214;2022-08-25T00:39:36;2.92;;;2.17;;
793;SDS011;380;48.738;9.214;2022-08-25T00:42:03;5.85;;;2.83;;
793;SDS011;380;48.738;9.214;2022-08-25T00:44:30;4.50;;;2.65;;
793;SDS011;380;48.738;9.214;2022-08-25T00:46:57;3.80;;;3.00;;
793;SDS011;380;48.738;9.214;2022-08-25T00:54:21;4.50;;;3.00;;
793;SDS011;380;48.738;9.214;2022-08-25T00:56:48;3.08;;;2.38;;
793;SDS011;380;48.738;9.214;2022-08-25T00:59:16;3.92;;;2.50;;
793;SDS011;380;48.738;9.214;2022-08-25T01:01:43;3.47;;;2.55;;
793;SDS011;380;48.738;9.214;2022-08-25T01:04:09;3.78;;;2.22;;
793;SDS011;380;48.738;9.214;2022-08-25T01:06:36;3.70;;;2.90;;
793;SDS011;380;48.738;9.214;2022-08-25T01:09:04;2.90;;;2.15;;
793;SDS011;380;48.738;9.214;2022-08-25T01:11:31;3.30;;;2.40;;
793;SDS011;380;48.738;9.214;2022-08-25T01:13:58;3.60;;;2.53;;
793;SDS011;380;48.738;9.214;2022-08-25T01:16:27;4.47;;;2.42;;
793;SDS011;380;48.738;9.214;2022-08-25T01:18:54;3.35;;;2.78;;
793;SDS011;380;48.738;9.214;2022-08-25T01:21:21;3.78;;;2.60;;
793;SDS011;380;48.738;9.214;2022-08-25T01:23:48;3.15;;;2.00;;
793;SDS011;380;48.738;9.214;2022-08-25T01:26:17;3.15;;;2.55;;
793;SDS011;380;48.738;9.214;2022-08-25T01:28:44;4.25;;;2.47;;
793;SDS011;380;48.738;9.214;2022-08-25T01:31:29;2.92;;;2.45;;
793;SDS011;380;48.738;9.214;2022-08-25T01:33:56;4.20;;;2.95;;
793;SDS011;380;48.738;9.214;2022-08-25T01:36:23;3.65;;;2.95;;
793;SDS011;380;48.738;9.214;2022-08-25T01:38:49;3.38;;;3.03;;
793;SDS011;380;48.738;9.214;2022-08-25T01:41:16;3.70;;;2.50;;
793;SDS011;380;48.738;9.214;2022-08-25T01:43:46;4.93;;;2.97;;
793;SDS011;380;48.738;9.214;2022-08-25T01:46:12;3.90;;;2.78;;
793;SDS011;380;48.738;9.214;2022-08-25T01:48:38;4.18;;;3.13;;
793;SDS011;380;48.738;9.214;2022-08-25T01:51:04;3.15;;;2.83;;
793;SDS011;380;48.738;9.214;2022-08-25T01:53:31;4.85;;;3.10;;
793;SDS011;380;48.738;9.214;2022-08-25T01:55:57;3.92;;;3.28;;
793;SDS011;380;48.738;9.214;2022-08-25T01:58:30;3.33;;;2.72;;
793;SDS011;380;48.738;9.214;2022-08-25T02:00:59;6.68;;;3.10;;
793;SDS011;380;48.738;9.214;2022-08-25T02:03:26;4.03;;;3.42;;
793;SDS011;380;48.738;9.214;2022-08-25T02:05:53;4.50;;;3.28;;
793;SDS011;380;48.738;9.214;2022-08-25T02:08:20;4.13;;;2.88;;
793;SDS011;380;48.738;9.214;2022-08-25T02:10:47;4.00;;;3.20;;
793;SDS011;380;48.738;9.214;2022-08-25T02:13:13;4.75;;;3.10;;
793;SDS011;380;48.738;9.214;2022-08-25T02:16:01;5.88;;;3.67;;
793;SDS011;380;48.738;9.214;2022-08-25T02:18:26;4.05;;;3.22;;
793;SDS011;380;48.738;9.214;2022-08-25T02:20:52;6.53;;;3.30;;
793;SDS011;380;48.738;9.214;2022-08-25T02:23:19;3.78;;;2.92;;
793;SDS011;380;48.738;9.214;2022-08-25T02:25:45;5.32;;;2.97;;
793;SDS011;380;48.738;9.214;2022-08-25T02:28:11;3.80;;;3.10;;
793;SDS011;380;48.738;9.214;2022-08-25T02:30:38;5.43;;;3.67;;
793;SDS011;380;48.738;9.214;2022-08-25T02:33:06;4.75;;;3.13;;
793;SDS011;380;48.738;9.214;2022-08-25T02:35:33;4.38;;;3.25;;
793;SDS011;380;48.738;9.214;2022-08-25T02:37:58;5.53;;;3.58;;
793;SDS011;380;48.738;9.214;2022-08-25T02:40:24;4.78;;;3.80;;
793;SDS011;380;48.738;9.214;2022-08-25T02:42:51;3.67;;;3.13;;
793;SDS011;380;48.738;9.214;2022-08-25T02:45:17;4.95;;;3.15;;
793;SDS011;380;48.738;9.214;2022-08-25T02:47:44;5.00;;;3.58;;
793;SDS011;380;48.738;9.214;2022-08-25T02:50:10;3.80;;;3.33;;
793;SDS011;380;48.738;9.214;2022-08-25T02:52:36;3.58;;;3.00;;
793;SDS011;380;48.738;9.214;2022-08-25T02:55:04;5.10;;;3.35;;
793;SDS011;380;48.738;9.214;2022-08-25T02:57:30;4.15;;;2.95;;
793;SDS011;380;48.738;9.214;2022-08-25T02:59:56;4.30;;;3.53;;
793;SDS011;380;48.738;9.214;2022-08-25T03:02:23;4.35;;;3.10;;
793;SDS011;380;48.738;9.214;2022-08-25T03:04:49;4.43;;;3.80;;
793;SDS011;380;48.738;9.214;2022-08-25T03:07:16;4.13;;;3.65;;
793;SDS011;380;48.738;9.214;2022-08-25T03:09:42;4.28;;;3.28;;
793;SDS011;380;48.738;9.214;2022-08-25T03:12:08;6.47;;;3.03;;
793;SDS011;380;48.738;9.214;2022-08-25T03:14:35;4.25;;;3.35;;
793;SDS011;380;48.738;9.214;2022-08-25T03:17:00;5.88;;;3.70;;
793;SDS011;380;48.738;9.214;2022-08-25T03:19:26;7.32;;;3.25;;
793;SDS011;380;48.738;9.214;2022-08-25T03:21:52;4.45;;;3.10;;
793;SDS011;380;48.738;9.214;2022-08-25T03:24:21;4.43;;;3.40;;
793;SDS011;380;48.738;9.214;2022-08-25T03:26:47;5.65;;;3.50;;
793;SDS011;380;48.738;9.214;2022-08-25T03:29:23;4.57;;;3.70;;
793;SDS011;380;48.738;9.214;2022-08-25T03:31:50;4.13;;;3.22;;
793;SDS011;380;48.738;9.214;2022-08-25T03:34:17;3.85;;;3.10;;
793;SDS011;380;48.738;9.214;2022-08-25T03:36:43;4.22;;;3.28;;
793;SDS011;380;48.738;9.214;2022-08-25T03:39:10;4.07;;;3.40;;
793;SDS011;380;48.738;9.214;2022-08-25T03:41:36;4.75;;;4.25;;
793;SDS011;380;48.738;9.214;2022-08-25T03:44:03;6.15;;;3.80;;
793;SDS011;380;48.738;9.214;2022-08-25T03:46:33;5.25;;;3.45;;
793;SDS011;380;48.738;9.214;2022-08-25T03:49:00;3.65;;;3.08;;
793;SDS011;380;48.738;9.214;2022-08-25T03:51:29;5.28;;;3.95;;
793;SDS011;380;48.738;9.214;2022-08-25T03:53:55;4.55;;;3.90;;
793;SDS011;380;48.738;9.214;2022-08-25T03:56:22;5.18;;;3.83;;
793;SDS011;380;48.738;9.214;2022-08-25T03:58:48;7.63;;;4.47;;
793;SDS011;380;48.738;9.214;2022-08-25T04:01:15;6.90;;;4.18;;
793;SDS011;380;48.738;9.214;2022-08-25T04:03:41;5.95;;;4.57;;
793;SDS011;380;48.738;9.214;2022-08-25T04:06:07;4.50;;;4.05;;
793;SDS011;380;48.738;9.214;2022-08-25T04:08:34;5.57;;;4.07;;
793;SDS011;380;48.738;9.214;2022-08-25T04:11:07;5.13;;;4.55;;
793;SDS011;380;48.738;9.214;2022-08-25T04:13:33;4.85;;;4.05;;
793;SDS011;380;48.738;9.214;2022-08-25T04:16:00;5.72;;;4.22;;
793;SDS011;380;48.738;9.214;2022-08-25T04:18:26;5.45;;;4.35;;
793;SDS011;380;48.738;9.214;2022-08-25T04:20:58;7.00;;;4.45;;
793;SDS011;380;48.738;9.214;2022-08-25T04:23:26;9.10;;;4.78;;
793;SDS011;380;48.738;9.214;2022-08-25T04:25:52;5.85;;;4.68;;
793;SDS011;380;48.738;9.214;2022-08-25T04:28:18;6.50;;;4.10;;
793;SDS011;380;48.738;9.214;2022-08-25T04:30:43;5.18;;;3.80;;
793;SDS011;380;48.738;9.214;2022-08-25T04:33:09;7.57;;;3.85;;
793;SDS011;380;48.738;9.214;2022-08-25T04:35:37;7.72;;;4.55;;
793;SDS011;380;48.738;9.214;2022-08-25T04:38:03;5.53;;;4.20;;
793;SDS011;380;48.738;9.214;2022-08-25T04:40:29;5.18;;;4.05;;
793;SDS011;380;48.738;9.214;2022-08-25T04:42:55;5.43;;;4.22;;
793;SDS011;380;48.738;9.214;2022-08-25T04:45:21;4.57;;;3.70;;
793;SDS011;380;48.738;9.214;2022-08-25T04:47:47;5.75;;;4.38;;
793;SDS011;380;48.738;9.214;2022-08-25T04:50:13;7.90;;;4.68;;
793;SDS011;380;48.738;9.214;2022-08-25T04:52:39;6.07;;;4.82;;
793;SDS011;380;48.738;9.214;2022-08-25T04:55:05;6.20;;;4.78;;
793;SDS011;380;48.738;9.214;2022-08-25T04:57:31;5.70;;;4.40;;
793;SDS011;380;48.738;9.214;2022-08-25T04:59:57;5.55;;;4.53;;
793;SDS011;380;48.738;9.214;2022-08-25T05:02:23;5.88;;;4.38;;
793;SDS011;380;48.738;9.214;2022-08-25T05:04:49;5.22;;;4.25;;
793;SDS011;380;48.738;9.214;2022-08-25T05:07:15;5.90;;;4.18;;
793;SDS011;380;48.738;9.214;2022-08-25T05:09:41;4.93;;;4.28;;
793;SDS011;380;48.738;9.214;2022-08-25T05:12:07;6.18;;;4.88;;
793;SDS011;380;48.738;9.214;2022-08-25T05:14:33;7.20;;;4.80;;
793;SDS011;380;48.738;9.214;2022-08-25T05:16:59;5.72;;;4.20;;
793;SDS011;380;48.738;9.214;2022-08-25T05:19:26;5.30;;;4.63;;
793;SDS011;380;48.738;9.214;2022-08-25T05:21:52;5.15;;;4.65;;
793;SDS011;380;48.738;9.214;2022-08-25T05:24:18;6.68;;;5.03;;
793;SDS011;380;48.738;9.214;2022-08-25T05:26:45;5.68;;;4.55;;
793;SDS011;380;48.738;9.214;2022-08-25T05:29:12;7.47;;;4.90;;
793;SDS011;380;48.738;9.214;2022-08-25T05:31:38;6.15;;;4.45;;
793;SDS011;380;48.738;9.214;2022-08-25T05:34:05;5.72;;;4.75;;
793;SDS011;380;48.738;9.214;2022-08-25T05:36:31;5.22;;;4.63;;
793;SDS011;380;48.738;9.214;2022-08-25T05:38:58;4.95;;;3.60;;
793;SDS011;380;48.738;9.214;2022-08-25T05:41:25;4.68;;;3.88;;
793;SDS011;380;48.738;9.214;2022-08-25T05:43:52;5.80;;;4.53;;
793;SDS011;380;48.738;9.214;2022-08-25T05:46:18;5.20;;;4.45;;
793;SDS011;380;48.738;9.214;2022-08-25T05:48:45;5.13;;;4.05;;
793;SDS011;380;48.738;9.214;2022-08-25T05:51:11;6.03;;;3.92;;
793;SDS011;380;48.738;9.214;2022-08-25T05:53:39;6.60;;;4.43;;
793;SDS011;380;48.738;9.214;2022-08-25T05:56:06;6.60;;;4.57;;
793;SDS011;380;48.738;9.214;2022-08-25T05:58:32;6.00;;;4.32;;
793;SDS011;380;48.738;9.214;2022-08-25T06:00:58;4.47;;;3.67;;
793;SDS011;380;48.738;9.214;2022-08-25T06:03:45;4.78;;;3.95;;
793;SDS011;380;48.738;9.214;2022-08-25T06:06:11;6.82;;;4.60;;
793;SDS011;380;48.738;9.214;2022-08-25T06:08:38;5.10;;;4.60;;
793;SDS011;380;48.738;9.214;2022-08-25T06:11:04;5.65;;;4.47;;
793;SDS011;380;48.738;9.214;2022-08-25T06:13:31;6.38;;;5.15;;
793;SDS011;380;48.738;9.214;2022-08-25T06:15:57;6.70;;;4.68;;
793;SDS011;380;48.738;9.214;2022-08-25T06:18:24;4.20;;;3.78;;
793;SDS011;380;48.738;9.214;2022-08-25T06:20:50;6.25;;;5.18;;
793;SDS011;380;48.738;9.214;2022-08-25T06:23:16;5.93;;;5.05;;
793;SDS011;380;48.738;9.214;2022-08-25T06:25:48;5.05;;;4.15;;
793;SDS011;380;48.738;9.214;2022-08-25T06:28:14;5.55;;;4.32;;
793;SDS011;380;48.738;9.214;2022-08-25T06:30:40;10.57;;;4.82;;
793;SDS011;380;48.738;9.214;2022-08-25T06:33:06;5.85;;;5.05;;
793;SDS011;380;48.738;9.214;2022-08-25T06:35:32;6.38;;;5.78;;
793;SDS011;380;48.738;9.214;2022-08-25T06:37:58;8.32;;;5.20;;
793;SDS011;380;48.738;9.214;2022-08-25T06:40:24;8.05;;;5.75;;
793;SDS011;380;48.738;9.214;2022-08-25T06:42:50;5.32;;;4.63;;
793;SDS011;380;48.738;9.214;2022-08-25T06:45:16;6.20;;;5.57;;
793;SDS011;380;48.738;9.214;2022-08-25T06:47:42;6.28;;;5.07;;
793;SDS011;380;48.738;9.214;2022-08-25T06:50:08;6.30;;;4.60;;
793;SDS011;380;48.738;9.214;2022-08-25T06:52:34;6.03;;;5.22;;
793;SDS011;380;48.738;9.214;2022-08-25T06:55:01;6.47;;;5.60;;
793;SDS011;380;48.738;9.214;2022-08-25T06:57:28;6.78;;;5.88;;
793;SDS011;380;48.738;9.214;2022-08-25T06:59:56;5.60;;;5.03;;
793;SDS011;380;48.738;9.214;2022-08-25T07:02:22;9.85;;;5.63;;
793;SDS011;380;48.738;9.214;2022-08-25T07:04:48;9.32;;;5.35;;
793;SDS011;380;48.738;9.214;2022-08-25T07:07:16;6.28;;;4.68;;
793;SDS011;380;48.738;9.214;2022-08-25T07:09:43;7.05;;;5.88;;
793;SDS011;380;48.738;9.214;2022-08-25T07:12:09;5.90;;;4.72;;
793;SDS011;380;48.738;9.214;2022-08-25T07:14:35;6.43;;;5.00;;
793;SDS011;380;48.738;9.214;2022-08-25T07:17:01;6.90;;;5.40;;
793;SDS011;380;48.738;9.214;2022-08-25T07:19:27;7.22;;;4.78;;
793;SDS011;380;48.738;9.214;2022-08-25T07:21:53;8.43;;;5.45;;
793;SDS011;380;48.738;9.214;2022-08-25T07:24:20;6.20;;;5.50;;
793;SDS011;380;48.738;9.214;2022-08-25T07:26:46;6.40;;;5.57;;
793;SDS011;380;48.738;9.214;2022-08-25T07:29:16;7.18;;;5.72;;
793;SDS011;380;48.738;9.214;2022-08-25T07:31:43;7.35;;;5.00;;
793;SDS011;380;48.738;9.214;2022-08-25T07:34:09;7.22;;;5.68;;
793;SDS011;380;48.738;9.214;2022-08-25T07:36:54;6.25;;;4.68;;
793;SDS011;380;48.738;9.214;2022-08-25T07:39:21;4.90;;;4.30;;
793;SDS011;380;48.738;9.214;2022-08-25T07:41:47;6.57;;;5.63;;
793;SDS011;380;48.738;9.214;2022-08-25T07:44:13;6.90;;;5.07;;
793;SDS011;380;48.738;9.214;2022-08-25T07:46:39;6.93;;;4.80;;
793;SDS011;380;48.738;9.214;2022-08-25T07:49:05;7.68;;;4.72;;
793;SDS011;380;48.738;9.214;2022-08-25T07:51:31;7.30;;;4.75;;
793;SDS011;380;48.738;9.214;2022-08-25T07:53:57;6.53;;;4.80;;
793;SDS011;380;48.738;9.214;2022-08-25T07:56:23;7.22;;;5.40;;
793;SDS011;380;48.738;9.214;2022-08-25T07:58:49;4.93;;;4.13;;
793;SDS011;380;48.738;9.214;2022-08-25T08:01:16;4.88;;;4.00;;
793;SDS011;380;48.738;9.214;2022-08-25T08:03:43;5.13;;;4.63;;
793;SDS011;380;48.738;9.214;2022-08-25T08:06:10;7.35;;;5.20;;
793;SDS011;380;48.738;9.214;2022-08-25T08:08:40;7.13;;;4.60;;
793;SDS011;380;48.738;9.214;2022-08-25T08:11:18;5.45;;;4.50;;
793;SDS011;380;48.738;9.214;2022-08-25T08:13:45;6.93;;;4.70;;
793;SDS011;380;48.738;9.214;2022-08-25T08:16:11;5.40;;;3.85;;
793;SDS011;380;48.738;9.214;2022-08-25T08:18:38;6.40;;;4.65;;
793;SDS011;380;48.738;9.214;2022-08-25T08:21:04;5.15;;;4.40;;
793;SDS011;380;48.738;9.214;2022-08-25T08:23:30;4.97;;;4.40;;
793;SDS011;380;48.738;9.214;2022-08-25T08:25:56;6.70;;;4.60;;
793;SDS011;380;48.738;9.214;2022-08-25T08:28:22;4.82;;;4.40;;
793;SDS011;380;48.738;9.214;2022-08-25T08:30:51;5.57;;;3.70;;
793;SDS011;380;48.738;9.214;2022-08-25T08:33:17;6.78;;;5.25;;
793;SDS011;380;48.738;9.214;2022-08-25T08:35:43;7.05;;;4.35;;
793;SDS011;380;48.738;9.214;2022-08-25T08:38:09;4.80;;;4.30;;
793;SDS011;380;48.738;9.214;2022-08-25T08:40:38;7.25;;;5.05;;
793;SDS011;380;48.738;9.214;2022-08-25T08:43:08;5.43;;;4.75;;
793;SDS011;380;48.738;9.214;2022-08-25T08:45:40;5.47;;;4.70;;
793;SDS011;380;48.738;9.214;2022-08-25T08:50:43;10.70;;;4.65;;
793;SDS011;380;48.738;9.214;2022-08-25T08:53:26;4.10;;;3.65;;
793;SDS011;380;48.738;9.214;2022-08-25T08:55:56;8.27;;;4.38;;
793;SDS011;380;48.738;9.214;2022-08-25T08:58:24;6.68;;;3.92;;
793;SDS011;380;48.738;9.214;2022-08-25T09:03:36;4.05;;;3.65;;
793;SDS011;380;48.738;9.214;2022-08-25T09:06:07;4.15;;;3.75;;
793;SDS011;380;48.738;9.214;2022-08-25T09:08:35;4.32;;;3.92;;
793;SDS011;380;48.738;9.214;2022-08-25T09:13:41;5.60;;;3.75;;
793;SDS011;380;48.738;9.214;2022-08-25T09:16:16;5.53;;;3.67;;
793;SDS011;380;48.738;9.214;2022-08-25T09:21:33;5.97;;;3.63;;
793;SDS011;380;48.738;9.214;2022-08-25T09:24:12;4.95;;;3.55;;
793;SDS011;380;48.738;9.214;2022-08-25T09:29:14;5.18;;;3.72;;
793;SDS011;380;48.738;9.214;2022-08-25T09:31:43;5.30;;;3.75;;
793;SDS011;380;48.738;9.214;2022-08-25T09:34:11;4.80;;;3.50;;
793;SDS011;380;48.738;9.214;2022-08-25T09:36:37;3.75;;;3.08;;
793;SDS011;380;48.738;9.214;2022-08-25T09:39:06;4.97;;;3.35;;
793;SDS011;380;48.738;9.214;2022-08-25T09:41:49;3.67;;;2.80;;
793;SDS011;380;48.738;9.214;2022-08-25T09:49:42;6.90;;;3.20;;
793;SDS011;380;48.738;9.214;2022-08-25T09:54:43;3.15;;;2.85;;
793;SDS011;380;48.738;9.214;2022-08-25T09:57:09;7.82;;;3.58;;
793;SDS011;380;48.738;9.214;2022-08-25T09:59:52;3.60;;;2.63;;
793;SDS011;380;48.738;9.214;2022-08-25T10:02:25;4.43;;;2.88;;
793;SDS011;380;48.738;9.214;2022-08-25T10:04:51;4.00;;;3.17;;
793;SDS011;380;48.738;9.214;2022-08-25T10:07:20;4.65;;;3.33;;
793;SDS011;380;48.738;9.214;2022-08-25T10:09:59;3.90;;;3.33;;
793;SDS011;380;48.738;9.214;2022-08-25T10:12:33;5.55;;;3.38;;
793;SDS011;380;48.738;9.214;2022-08-25T10:15:17;4.07;;;2.63;;
793;SDS011;380;48.738;9.214;2022-08-25T10:17:43;4.38;;;2.92;;
793;SDS011;380;48.738;9.214;2022-08-25T10:22:35;4.82;;;3.30;;
793;SDS011;380;48.738;9.214;2022-08-25T10:25:05;3.70;;;2.92;;
793;SDS011;380;48.738;9.214;2022-08-25T10:38:22;5.38;;;3.10;;
793;SDS011;380;48.738;9.214;2022-08-25T10:48:32;3.95;;;2.72;;
793;SDS011;380;48.738;9.214;2022-08-25T10:51:05;4.10;;;3.53;;
793;SDS011;380;48.738;9.214;2022-08-25T10:56:30;3.10;;;2.67;;
793;SDS011;380;48.738;9.214;2022-08-25T10:59:02;4.57;;;3.22;;
793;SDS011;380;48.738;9.214;2022-08-25T11:01:35;3.65;;;2.88;;
793;SDS011;380;48.738;9.214;2022-08-25T11:04:04;4.07;;;3.20;;
793;SDS011;380;48.738;9.214;2022-08-25T11:06:40;5.15;;;3.13;;
793;SDS011;380;48.738;9.214;2022-08-25T11:09:08;4.03;;;2.60;;
793;SDS011;380;48.738;9.214;2022-08-25T11:11:41;4.40;;;3.08;;
793;SDS011;380;48.738;9.214;2022-08-25T11:14:13;3.95;;;2.70;;
793;SDS011;380;48.738;9.214;2022-08-25T11:16:47;3.78;;;3.20;;
793;SDS011;380;48.738;9.214;2022-08-25T11:19:18;4.30;;;3.10;;
793;SDS011;380;48.738;9.214;2022-08-25T11:21:47;3.47;;;2.67;;
793;SDS011;380;48.738;9.214;2022-08-25T11:26:45;2.85;;;2.45;;
793;SDS011;380;48.738;9.214;2022-08-25T11:29:15;4.10;;;2.80;;
793;SDS011;380;48.738;9.214;2022-08-25T11:31:47;4.63;;;2.88;;
793;SDS011;380;48.738;9.214;2022-08-25T11:34:14;3.22;;;2.40;;
793;SDS011;380;48.738;9.214;2022-08-25T11:36:47;4.68;;;2.97;;
793;SDS011;380;48.738;9.214;2022-08-25T11:39:15;3.92;;;2.78;;
793;SDS011;380;48.738;9.214;2022-08-25T11:49:29;3.97;;;2.97;;
793;SDS011;380;48.738;9.214;2022-08-25T11:51:59;4.10;;;3.00;;
793;SDS011;380;48.738;9.214;2022-08-25T11:54:29;4.22;;;3.28;;
793;SDS011;380;48.738;9.214;2022-08-25T11:57:00;3.85;;;2.75;;
793;SDS011;380;48.738;9.214;2022-08-25T12:02:38;3.47;;;2.45;;
793;SDS011;380;48.738;9.214;2022-08-25T12:05:06;3.72;;;2.60;;
793;SDS011;380;48.738;9.214;2022-08-25T12:10:18;4.35;;;2.78;;
793;SDS011;380;48.738;9.214;2022-08-25T12:15:19;3.88;;;2.90;;
793;SDS011;380;48.738;9.214;2022-08-25T12:18:05;5.45;;;3.08;;
793;SDS011;380;48.738;9.214;2022-08-25T12:23:16;3.88;;;3.25;;
793;SDS011;380;48.738;9.214;2022-08-25T12:25:43;4.63;;;3.15;;
793;SDS011;380;48.738;9.214;2022-08-25T12:28:16;2.80;;;2.50;;
793;SDS011;380;48.738;9.214;2022-08-25T12:30:47;3.25;;;2.22;;
793;SDS011;380;48.738;9.214;2022-08-25T12:33:21;3.05;;;2.40;;
793;SDS011;380;48.738;9.214;2022-08-25T12:43:40;3.22;;;2.45;;
793;SDS011;380;48.738;9.214;2022-08-25T12:51:23;5.22;;;2.67;;
793;SDS011;380;48.738;9.214;2022-08-25T12:53:56;3.58;;;2.38;;
793;SDS011;380;48.738;9.214;2022-08-25T12:56:29;3.35;;;2.88;;
793;SDS011;380;48.738;9.214;2022-08-25T12:59:13;2.90;;;2.25;;
793;SDS011;380;48.738;9.214;2022-08-25T13:07:12;5.55;;;2.90;;
793;SDS011;380;48.738;9.214;2022-08-25T13:12:20;4.03;;;2.67;;
793;SDS011;380;48.738;9.214;2022-08-25T13:14:53;5.35;;;2.50;;
793;SDS011;380;48.738;9.214;2022-08-25T13:17:30;3.78;;;2.63;;
793;SDS011;380;48.738;9.214;2022-08-25T13:20:09;3.58;;;2.85;;
793;SDS011;380;48.738;9.214;2022-08-25T13:22:35;3.45;;;2.55;;
793;SDS011;380;48.738;9.214;2022-08-25T13:25:02;4.03;;;2.45;;
793;SDS011;380;48.738;9.214;2022-08-25T13:27:29;3.60;;;2.35;;
793;SDS011;380;48.738;9.214;2022-08-25T13:29:57;2.58;;;2.05;;
793;SDS011;380;48.738;9.214;2022-08-25T13:32:28;4.03;;;2.58;;
793;SDS011;380;48.738;9.214;2022-08-25T13:35:06;3.25;;;2.85;;
793;SDS011;380;48.738;9.214;2022-08-25T13:37:32;6.32;;;2.45;;
793;SDS011;380;48.738;9.214;2022-08-25T13:42:37;4.43;;;3.25;;
793;SDS011;380;48.738;9.214;2022-08-25T13:45:04;3.00;;;2.30;;
793;SDS011;380;48.738;9.214;2022-08-25T13:47:37;3.28;;;2.33;;
793;SDS011;380;48.738;9.214;2022-08-25T13:50:17;3.72;;;2.70;;
793;SDS011;380;48.738;9.214;2022-08-25T13:52:46;3.38;;;2.63;;
793;SDS011;380;48.738;9.214;2022-08-25T13:55:18;4.22;;;2.38;;
793;SDS011;380;48.738;9.214;2022-08-25T13:57:44;2.67;;;2.22;;
793;SDS011;380;48.738;9.214;2022-08-25T14:00:10;2.78;;;2.22;;
793;SDS011;380;48.738;9.214;2022-08-25T14:05:08;2.90;;;2.28;;
793;SDS011;380;48.738;9.214;2022-08-25T14:07:35;2.85;;;2.05;;
793;SDS011;380;48.738;9.214;2022-08-25T14:12:32;3.53;;;2.30;;
793;SDS011;380;48.738;9.214;2022-08-25T14:15:00;2.67;;;2.08;;
793;SDS011;380;48.738;9.214;2022-08-25T14:17:26;3.30;;;2.63;;
793;SDS011;380;48.738;9.214;2022-08-25T14:19:52;2.90;;;2.08;;
793;SDS011;380;48.738;9.214;2022-08-25T14:22:19;4.15;;;2.20;;
793;SDS011;380;48.738;9.214;2022-08-25T14:24:45;3.00;;;2.33;;
793;SDS011;380;48.738;9.214;2022-08-25T14:27:11;3.53;;;2.67;;
793;SDS011;380;48.738;9.214;2022-08-25T14:29:37;4.15;;;2.40;;
793;SDS011;380;48.738;9.214;2022-08-25T14:32:03;2.38;;;1.65;;
793;SDS011;380;48.738;9.214;2022-08-25T14:34:31;3.08;;;1.83;;
793;SDS011;380;48.738;9.214;2022-08-25T14:36:58;7.22;;;2.75;;
793;SDS011;380;48.738;9.214;2022-08-25T14:39:24;3.70;;;2.67;;
793;SDS011;380;48.738;9.214;2022-08-25T14:41:50;3.17;;;2.45;;
793;SDS011;380;48.738;9.214;2022-08-25T14:44:18;3.00;;;2.42;;
793;SDS011;380;48.738;9.214;2022-08-25T14:46:45;3.80;;;2.72;;
793;SDS011;380;48.738;9.214;2022-08-25T14:51:40;3.42;;;2.40;;
793;SDS011;380;48.738;9.214;2022-08-25T14:54:08;3.20;;;2.30;;
793;SDS011;380;48.738;9.214;2022-08-25T14:56:34;2.83;;;2.45;;
793;SDS011;380;48.738;9.214;2022-08-25T14:59:00;3.80;;;2.33;;
793;SDS011;380;48.738;9.214;2022-08-25T15:01:27;3.25;;;2.28;;
793;SDS011;380;48.738;9.214;2022-08-25T15:03:54;4.00;;;2.53;;
793;SDS011;380;48.738;9.214;2022-08-25T15:06:21;6.05;;;2.80;;
793;SDS011;380;48.738;9.214;2022-08-25T15:08:47;3.08;;;2.28;;
793;SDS011;380;48.738;9.214;2022-08-25T15:11:32;3.03;;;2.42;;
793;SDS011;380;48.738;9.214;2022-08-25T15:13:58;3.97;;;2.72;;
793;SDS011;380;48.738;9.214;2022-08-25T15:16:44;3.22;;;2.38;;
793;SDS011;380;48.738;9.214;2022-08-25T15:19:12;2.58;;;2.15;;
793;SDS011;380;48.738;9.214;2022-08-25T15:21:39;3.50;;;2.60;;
793;SDS011;380;48.738;9.214;2022-08-25T15:24:06;3.50;;;2.42;;
793;SDS011;380;48.738;9.214;2022-08-25T15:26:34;2.88;;;2.00;;
793;SDS011;380;48.738;9.214;2022-08-25T15:29:03;3.80;;;2.35;;
793;SDS011;380;48.738;9.214;2022-08-25T15:31:30;3.33;;;2.72;;
793;SDS011;380;48.738;9.214;2022-08-25T15:33:56;3.22;;;2.83;;
793;SDS011;380;48.738;9.214;2022-08-25T15:36:23;3.38;;;2.40;;
793;SDS011;380;48.738;9.214;2022-08-25T15:38:49;3.28;;;2.80;;
793;SDS011;380;48.738;9.214;2022-08-25T15:41:16;3.80;;;2.78;;
793;SDS011;380;48.738;9.214;2022-08-25T15:43:42;2.78;;;2.22;;
793;SDS011;380;48.738;9.214;2022-08-25T15:46:08;2.88;;;2.20;;
793;SDS011;380;48.738;9.214;2022-08-25T15:48:38;3.38;;;2.65;;
793;SDS011;380;48.738;9.214;2022-08-25T15:51:03;3.50;;;2.60;;
793;SDS011;380;48.738;9.214;2022-08-25T15:53:32;3.67;;;2.50;;
793;SDS011;380;48.738;9.214;2022-08-25T15:55:58;3.38;;;2.10;;
793;SDS011;380;48.738;9.214;2022-08-25T15:58:24;3.83;;;2.50;;
793;SDS011;380;48.738;9.214;2022-08-25T16:00:50;3.03;;;2.13;;
793;SDS011;380;48.738;9.214;2022-08-25T16:03:16;3.08;;;2.30;;
793;SDS011;380;48.738;9.214;2022-08-25T16:05:43;4.38;;;2.22;;
793;SDS011;380;48.738;9.214;2022-08-25T16:08:09;3.05;;;1.95;;
793;SDS011;380;48.738;9.214;2022-08-25T16:10:36;3.30;;;2.22;;
793;SDS011;380;48.738;9.214;2022-08-25T16:13:03;3.05;;;2.08;;
793;SDS011;380;48.738;9.214;2022-08-25T16:15:29;2.67;;;2.10;;
793;SDS011;380;48.738;9.214;2022-08-25T16:17:57;3.85;;;2.25;;
793;SDS011;380;48.738;9.214;2022-08-25T16:20:23;5.72;;;2.00;;
793;SDS011;380;48.738;9.214;2022-08-25T16:22:49;2.92;;;2.25;;
793;SDS011;380;48.738;9.214;2022-08-25T16:25:15;3.20;;;2.45;;
793;SDS011;380;48.738;9.214;2022-08-25T16:27:41;2.67;;;2.00;;
793;SDS011;380;48.738;9.214;2022-08-25T16:30:08;4.32;;;2.45;;
793;SDS011;380;48.738;9.214;2022-08-25T16:32:35;2.78;;;2.42;;
793;SDS011;380;48.738;9.214;2022-08-25T16:35:01;3.58;;;2.47;;
793;SDS011;380;48.738;9.214;2022-08-25T16:37:27;3.17;;;2.50;;
793;SDS011;380;48.738;9.214;2022-08-25T16:39:55;3.38;;;2.10;;
793;SDS011;380;48.738;9.214;2022-08-25T16:42:21;3.75;;;2.45;;
793;SDS011;380;48.738;9.214;2022-08-25T16:44:46;5.15;;;2.70;;
793;SDS011;380;48.738;9.214;2022-08-25T16:47:12;2.85;;;2.28;;
793;SDS011;380;48.738;9.214;2022-08-25T16:49:40;3.08;;;2.47;;
793;SDS011;380;48.738;9.214;2022-08-25T16:52:07;3.47;;;2.78;;
793;SDS011;380;48.738;9.214;2022-08-25T16:54:52;3.85;;;3.13;;
793;SDS011;380;48.738;9.214;2022-08-25T16:57:36;2.90;;;2.50;;
793;SDS011;380;48.738;9.214;2022-08-25T17:00:03;5.15;;;2.50;;
793;SDS011;380;48.738;9.214;2022-08-25T17:02:30;4.32;;;2.42;;
793;SDS011;380;48.738;9.214;2022-08-25T17:04:56;4.20;;;2.65;;
793;SDS011;380;48.738;9.214;2022-08-25T17:07:22;3.30;;;2.47;;
793;SDS011;380;48.738;9.214;2022-08-25T17:09:48;4.43;;;2.55;;
793;SDS011;380;48.738;9.214;2022-08-25T17:12:14;2.97;;;2.15;;
793;SDS011;380;48.738;9.214;2022-08-25T17:14:40;3.40;;;2.35;;
793;SDS011;380;48.738;9.214;2022-08-25T17:17:06;4.40;;;3.20;;
793;SDS011;380;48.738;9.214;2022-08-25T17:19:32;3.75;;;2.67;;
793;SDS011;380;48.738;9.214;2022-08-25T17:21:58;3.78;;;2.75;;
793;SDS011;380;48.738;9.214;2022-08-25T17:24:24;3.17;;;2.88;;
793;SDS011;380;48.738;9.214;2022-08-25T17:26:50;3.45;;;2.00;;
793;SDS011;380;48.738;9.214;2022-08-25T17:29:16;3.25;;;2.35;;
793;SDS011;380;48.738;9.214;2022-08-25T17:31:42;3.63;;;2.72;;